Time;durP1;ratioP1;P1;durP2;ratioP2;P2;SDS_P1;SDS_P2;PMS_P1;PMS_P2;Temp;Humidity;BMP_temperature;BMP_pressure;BME280_temperature;BME280_humidity;BME280_pressure;Samples;Min_cycle;Max_cycle;Signal;HPM_P1;HPM_P2
2023/09/10 00:01:14;;;;;;;2.33;1.25;;;;;;;20.52;55.02;99933.66;4471098;31;34382;-78
2023/09/10 00:03:44;;;;;;;4.70;1.60;;;;;;;20.50;55.43;99930.25;4461806;32;34792;-78
2023/09/10 00:06:13;;;;;;;3.62;2.00;;;;;;;20.49;55.25;99933.78;4463841;32;33421;-79
2023/09/10 00:08:42;;;;;;;1.55;0.93;;;;;;;20.27;56.02;99929.59;4464712;32;33811;-78
2023/09/10 00:11:11;;;;;;;4.68;1.85;;;;;;;20.31;56.08;99936.41;4462436;32;33454;-78
2023/09/10 00:13:40;;;;;;;3.90;1.55;;;;;;;20.30;56.25;99932.09;4471708;32;32631;-78
2023/09/10 00:16:08;;;;;;;4.50;1.95;;;;;;;20.29;56.42;99932.16;4466187;32;34648;-78
2023/09/10 00:18:37;;;;;;;2.90;1.83;;;;;;;20.30;56.35;99928.59;4461356;32;34226;-79
2023/09/10 00:21:08;;;;;;;2.67;1.23;;;;;;;20.15;56.71;99931.06;4461116;32;34054;-78
2023/09/10 00:23:38;;;;;;;4.82;1.60;;;;;;;20.10;57.08;99927.78;4474032;32;34683;-79
2023/09/10 00:26:07;;;;;;;3.50;1.95;;;;;;;20.21;56.89;99930.75;4468475;32;34817;-78
2023/09/10 00:28:40;;;;;;;2.80;1.30;;;;;;;20.14;57.36;99928.50;4463607;32;34561;-78
2023/09/10 00:31:09;;;;;;;2.65;1.50;;;;;;;20.22;56.94;99927.19;4463540;32;34576;-79
2023/09/10 00:33:38;;;;;;;2.78;1.42;;;;;;;20.30;56.65;99924.19;4471350;32;33637;-79
2023/09/10 00:36:09;;;;;;;1.70;1.37;;;;;;;20.16;57.07;99924.84;4469775;32;34271;-79
2023/09/10 00:38:38;;;;;;;;;;;;;;;20.25;56.99;99928.84;4473713;32;34325;-78
2023/09/10 00:41:07;;;;;;;3.47;1.62;;;;;;;20.14;57.33;99928.50;4467920;32;34032;-78
2023/09/10 00:43:36;;;;;;;3.28;1.55;;;;;;;20.10;57.41;99924.28;4476123;32;34438;-79
2023/09/10 00:46:06;;;;;;;2.33;1.33;;;;;;;20.04;57.72;99928.09;4477859;32;34636;-78
2023/09/10 00:48:36;;;;;;;2.22;1.37;;;;;;;19.90;58.04;99920.84;4461525;32;34362;-79
2023/09/10 00:51:06;;;;;;;3.80;1.80;;;;;;;20.12;57.71;99925.91;4475716;32;33652;-78
2023/09/10 00:53:36;;;;;;;2.67;1.60;;;;;;;19.88;58.28;99927.13;4477656;32;34816;-79
2023/09/10 00:56:05;;;;;;;2.78;1.30;;;;;;;19.90;58.27;99926.09;4481094;32;32898;-78
2023/09/10 00:58:35;;;;;;;4.20;1.85;;;;;;;20.04;58.01;99928.09;4475987;32;34202;-79
2023/09/10 01:01:04;;;;;;;3.00;1.30;;;;;;;19.93;58.55;99930.38;4461604;32;33632;-78
2023/09/10 01:03:35;;;;;;;3.03;1.37;;;;;;;20.15;57.85;99925.78;4467577;32;33632;-78
2023/09/10 01:06:04;;;;;;;4.30;1.65;;;;;;;20.15;58.06;99928.44;4473883;32;33885;-79
2023/09/10 01:08:33;;;;;;;3.53;1.65;;;;;;;20.02;58.25;99925.50;4483019;32;33374;-79
2023/09/10 01:11:09;;;;;;;2.78;1.35;;;;;;;20.17;57.99;99933.59;4477134;32;33755;-78
2023/09/10 01:13:44;;;;;;;3.25;1.33;;;;;;;20.17;58.11;99928.34;4476872;32;33787;-78
2023/09/10 01:16:16;;;;;;;4.62;1.45;;;;;;;20.27;57.72;99931.38;4477216;32;34617;-78
2023/09/10 01:18:48;;;;;;;3.03;1.60;;;;;;;20.08;58.38;99927.03;4476960;32;33301;-78
2023/09/10 01:21:41;;;;;;;3.08;1.37;;;;;;;20.05;58.65;99921.88;4482799;32;33683;-78
2023/09/10 01:24:15;;;;;;;3.33;2.08;;;;;;;20.08;58.41;99924.37;4466635;31;33839;-80
2023/09/10 01:26:54;;;;;;;3.30;1.80;;;;;;;19.92;58.80;99916.38;4461322;32;33837;-79
2023/09/10 01:29:23;;;;;;;2.08;1.48;;;;;;;19.97;58.79;99922.25;4473034;32;33707;-78
2023/09/10 01:31:57;;;;;;;3.85;1.90;;;;;;;19.80;59.10;99923.06;4477221;32;34167;-78
2023/09/10 01:34:33;;;;;;;3.08;1.70;;;;;;;19.94;58.77;99914.50;4480271;32;33609;-78
2023/09/10 01:37:11;;;;;;;3.62;1.52;;;;;;;19.82;59.13;99920.38;4474286;32;34573;-78
2023/09/10 01:39:41;;;;;;;1.92;1.27;;;;;;;19.80;59.42;99917.81;4476692;32;33359;-80
2023/09/10 01:42:11;;;;;;;3.65;1.58;;;;;;;20.06;58.61;99923.59;4462321;32;33871;-79
2023/09/10 01:44:42;;;;;;;2.72;1.62;;;;;;;20.04;58.84;99923.66;4464873;32;33077;-78
2023/09/10 01:47:11;;;;;;;3.90;1.92;;;;;;;19.99;58.69;99917.78;4477938;32;33162;-78
2023/09/10 01:49:40;;;;;;;2.65;1.75;;;;;;;20.10;58.34;99922.50;4473586;32;33569;-80
2023/09/10 01:52:09;;;;;;;3.40;1.90;;;;;;;19.92;58.90;99920.78;4462620;32;33807;-79
2023/09/10 01:54:38;;;;;;;3.03;1.75;;;;;;;19.93;58.47;99931.22;4460794;32;33894;-79
2023/09/10 01:57:06;;;;;;;3.78;2.37;;;;;;;19.94;58.47;99927.69;4475316;32;33881;-78
2023/09/10 01:59:37;;;;;;;3.67;2.00;;;;;;;19.83;58.74;99927.31;4472373;32;35031;-79
2023/09/10 02:02:05;;;;;;;2.15;1.23;;;;;;;19.92;58.50;99919.00;4462862;32;34405;-78
2023/09/10 02:04:34;;;;;;;3.90;1.80;;;;;;;19.89;58.68;99934.09;4463711;32;34471;-79
2023/09/10 02:07:03;;;;;;;4.95;1.92;;;;;;;19.96;58.43;99928.47;4460830;32;34243;-78
2023/09/10 02:09:32;;;;;;;2.92;1.40;;;;;;;19.80;59.07;99932.75;4471321;32;33250;-79
2023/09/10 02:12:01;;;;;;;3.22;1.92;;;;;;;20.00;58.58;99932.63;4464915;32;34252;-79
2023/09/10 02:14:30;;;;;;;3.30;1.65;;;;;;;19.80;59.05;99930.97;4469668;32;33452;-78
2023/09/10 02:17:00;;;;;;;4.25;1.85;;;;;;;19.93;58.62;99925.97;4465794;32;33648;-78
2023/09/10 02:19:29;;;;;;;1.87;1.50;;;;;;;20.04;58.37;99928.94;4482550;32;32571;-78
2023/09/10 02:21:58;;;;;;;2.45;1.50;;;;;;;19.90;58.86;99933.16;4468691;32;33540;-78
2023/09/10 02:24:26;;;;;;;3.25;1.50;;;;;;;19.72;59.40;99933.13;4463570;32;34308;-78
2023/09/10 02:26:55;;;;;;;4.22;1.75;;;;;;;19.90;59.00;99934.00;4476831;32;33673;-78
2023/09/10 02:29:24;;;;;;;3.30;1.58;;;;;;;19.74;59.44;99939.16;4476364;32;33377;-78
2023/09/10 02:31:54;;;;;;;3.00;1.80;;;;;;;19.81;59.23;99937.06;4481278;32;33447;-79
2023/09/10 02:34:24;;;;;;;3.53;1.77;;;;;;;19.70;59.58;99939.37;4467052;32;34383;-78
2023/09/10 02:36:53;;;;;;;2.37;1.40;;;;;;;19.54;59.92;99940.03;4465265;32;35043;-79
2023/09/10 02:39:22;;;;;;;4.10;1.52;;;;;;;19.50;60.34;99933.22;4476122;32;33319;-79
2023/09/10 02:41:51;;;;;;;3.45;1.70;;;;;;;19.66;59.81;99937.78;4481775;32;33850;-79
2023/09/10 02:44:20;;;;;;;2.17;1.48;;;;;;;19.82;59.33;99931.75;4476254;32;34450;-79
2023/09/10 02:46:48;;;;;;;3.92;1.92;;;;;;;19.67;59.60;99939.47;4474528;32;34758;-78
2023/09/10 02:49:18;;;;;;;3.33;1.60;;;;;;;19.60;59.79;99937.12;4472298;32;33710;-78
2023/09/10 02:51:48;;;;;;;2.35;1.45;;;;;;;19.75;59.32;99930.34;4465602;32;32509;-78
2023/09/10 02:54:18;;;;;;;4.37;2.00;;;;;;;19.71;59.20;99926.13;4474682;32;33681;-79
2023/09/10 02:56:47;;;;;;;4.65;2.37;;;;;;;19.65;59.48;99925.56;4472138;32;33770;-79
2023/09/10 02:59:20;;;;;;;2.72;1.37;;;;;;;19.66;59.39;99927.25;4462317;32;33144;-78
2023/09/10 03:01:50;;;;;;;3.83;1.70;;;;;;;19.64;59.24;99927.31;4466769;32;33586;-78
2023/09/10 03:04:18;;;;;;;4.22;1.98;;;;;;;19.57;59.54;99928.50;4466657;32;34004;-78
2023/09/10 03:06:51;;;;;;;3.33;1.80;;;;;;;19.42;59.74;99926.59;4472982;32;35044;-78
2023/09/10 03:09:22;;;;;;;2.40;1.73;;;;;;;19.35;60.04;99918.13;4472813;32;33615;-78
2023/09/10 03:11:51;;;;;;;3.30;1.60;;;;;;;19.21;60.54;99925.78;4474089;32;33554;-78
2023/09/10 03:14:20;;;;;;;3.17;1.60;;;;;;;19.32;60.13;99919.13;4470804;32;34730;-79
2023/09/10 03:16:49;;;;;;;3.85;1.70;;;;;;;19.35;60.22;99923.38;4467116;32;34582;-78
2023/09/10 03:19:18;;;;;;;2.95;1.65;;;;;;;19.39;60.15;99928.44;4469172;32;33876;-78
2023/09/10 03:21:48;;;;;;;3.30;1.65;;;;;;;19.48;59.81;99919.28;4478005;32;34578;-79
2023/09/10 03:24:17;;;;;;;3.10;1.70;;;;;;;19.28;60.56;99922.84;4475333;32;35819;-79
2023/09/10 03:26:46;;;;;;;2.28;1.20;;;;;;;19.34;60.47;99921.69;4483749;32;34024;-80
2023/09/10 03:29:15;;;;;;;2.97;1.80;;;;;;;19.42;60.06;99924.81;4477778;32;33086;-78
2023/09/10 03:31:43;;;;;;;3.65;1.65;;;;;;;19.26;60.36;99923.84;4477780;32;33790;-79
2023/09/10 03:34:12;;;;;;;3.80;1.58;;;;;;;19.19;60.83;99918.00;4477685;32;34231;-80
2023/09/10 03:36:41;;;;;;;2.58;1.62;;;;;;;19.09;61.00;99914.91;4468933;32;34508;-79
2023/09/10 03:39:12;;;;;;;3.90;1.77;;;;;;;19.14;60.99;99915.56;4473970;32;33030;-79
2023/09/10 03:41:41;;;;;;;2.90;1.85;;;;;;;19.11;61.01;99909.56;4461907;32;33793;-79
2023/09/10 03:44:10;;;;;;;3.53;1.83;;;;;;;19.23;60.34;99916.06;4462196;32;34695;-79
2023/09/10 03:46:39;;;;;;;4.50;2.12;;;;;;;19.11;60.85;99904.31;4477611;32;34106;-78
2023/09/10 03:49:08;;;;;;;2.60;1.62;;;;;;;19.12;60.97;99912.16;4483519;32;33892;-78
2023/09/10 03:51:37;;;;;;;4.00;2.00;;;;;;;19.11;61.05;99909.56;4463125;32;33074;-78
2023/09/10 03:54:11;;;;;;;2.75;1.50;;;;;;;19.00;61.33;99899.56;4468195;32;34424;-79
2023/09/10 03:56:42;;;;;;;3.50;1.65;;;;;;;18.93;61.59;99906.00;4460781;32;33300;-79
2023/09/10 03:59:14;;;;;;;2.92;1.70;;;;;;;19.06;61.36;99908.94;4466314;32;32807;-80
2023/09/10 04:01:43;;;;;;;4.15;2.08;;;;;;;19.06;61.32;99904.53;4462307;32;34298;-79
2023/09/10 04:04:12;;;;;;;2.53;1.67;;;;;;;19.03;61.31;99904.66;4464633;32;34081;-78
2023/09/10 04:06:41;;;;;;;3.15;1.65;;;;;;;18.86;61.82;99909.81;4462317;32;34229;-78
2023/09/10 04:09:11;;;;;;;5.28;1.87;;;;;;;18.87;61.86;99901.87;4471520;32;33322;-79
2023/09/10 04:11:40;;;;;;;5.32;2.30;;;;;;;18.97;61.94;99910.22;4472337;32;33063;-78
2023/09/10 04:14:09;;;;;;;3.30;1.58;;;;;;;18.89;62.22;99918.41;4474195;32;33644;-78
2023/09/10 04:16:38;;;;;;;3.78;1.83;;;;;;;19.06;61.58;99916.81;4468036;32;33677;-78
2023/09/10 04:19:07;;;;;;;6.53;2.75;;;;;;;19.03;61.81;99920.44;4466288;32;34047;-80
2023/09/10 04:21:36;;;;;;;2.95;1.60;;;;;;;18.89;62.12;99909.69;4476522;32;33599;-78
2023/09/10 04:24:06;;;;;;;2.62;1.48;;;;;;;18.78;62.54;99917.19;4470352;32;33688;-78
2023/09/10 04:26:36;;;;;;;3.95;2.20;;;;;;;18.87;62.41;99914.16;4474835;32;34200;-79
2023/09/10 04:29:06;;;;;;;4.00;1.92;;;;;;;18.90;62.29;99924.56;4462903;32;32777;-78
2023/09/10 04:31:37;;;;;;;3.22;1.62;;;;;;;18.81;62.49;99920.53;4467706;32;34611;-79
2023/09/10 04:34:07;;;;;;;3.37;1.83;;;;;;;18.85;62.50;99923.91;4467769;32;34329;-77
2023/09/10 04:36:36;;;;;;;3.08;1.40;;;;;;;18.92;62.51;99931.44;4461879;32;34618;-77
2023/09/10 04:39:08;;;;;;;3.47;1.80;;;;;;;18.88;62.66;99927.22;4461743;32;34431;-80
2023/09/10 04:41:39;;;;;;;2.92;1.70;;;;;;;18.93;62.43;99932.28;4461637;32;34684;-78
2023/09/10 04:44:08;;;;;;;4.47;2.60;;;;;;;18.90;62.61;99930.66;4474002;32;33649;-78
2023/09/10 04:46:37;;;;;;;4.30;2.10;;;;;;;18.90;62.84;99928.03;4477487;32;34015;-78
2023/09/10 04:49:06;;;;;;;3.92;1.58;;;;;;;19.01;62.64;99934.56;4474141;32;34406;-79
2023/09/10 04:51:35;;;;;;;2.72;1.95;;;;;;;19.01;62.58;99931.94;4477247;32;33470;-78
2023/09/10 04:54:04;;;;;;;3.72;2.20;;;;;;;19.13;62.62;99932.25;4479133;32;33726;-80
2023/09/10 04:56:33;;;;;;;2.70;1.52;;;;;;;19.18;62.50;99935.56;4482863;32;33437;-79
2023/09/10 04:59:03;;;;;;;2.80;1.40;;;;;;;19.11;62.82;99942.00;4462077;32;33378;-78
2023/09/10 05:01:32;;;;;;;3.78;1.75;;;;;;;19.37;62.41;99942.59;4474553;32;33889;-79
2023/09/10 05:04:02;;;;;;;2.85;1.67;;;;;;;19.35;62.32;99942.69;4468977;32;33324;-78
2023/09/10 05:06:31;;;;;;;2.62;1.50;;;;;;;19.27;62.91;99942.16;4474038;32;33952;-78
2023/09/10 05:09:00;;;;;;;2.72;1.65;;;;;;;19.54;62.24;99955.81;4471268;32;33190;-78
2023/09/10 05:11:29;;;;;;;3.78;2.05;;;;;;;19.46;62.62;99952.72;4472960;32;32930;-79
2023/09/10 05:13:57;;;;;;;4.12;1.83;;;;;;;19.34;63.29;99948.00;4471791;32;33990;-78
2023/09/10 05:16:32;;;;;;;3.78;2.12;;;;;;;19.29;63.85;99950.00;4479510;32;34782;-78
2023/09/10 05:19:01;;;;;;;4.47;2.10;;;;;;;19.48;63.34;99950.88;4469899;32;32939;-79
2023/09/10 05:21:30;;;;;;;5.47;1.58;;;;;;;19.59;62.67;99950.34;4470366;32;34541;-79
2023/09/10 05:23:59;;;;;;;7.95;1.87;;;;;;;19.75;62.08;99961.06;4467357;32;33458;-78
2023/09/10 05:26:28;;;;;;;4.10;1.90;;;;;;;19.84;61.71;99955.37;4466538;32;33290;-79
2023/09/10 05:28:56;;;;;;;3.67;1.98;;;;;;;19.92;61.42;99965.53;4470234;32;33279;-78
2023/09/10 05:31:27;;;;;;;4.70;2.10;;;;;;;19.83;62.13;99957.13;4460157;32;33889;-79
2023/09/10 05:33:57;;;;;;;3.20;1.85;;;;;;;20.16;60.54;99959.09;4460851;32;33683;-78
2023/09/10 05:36:28;;;;;;;2.45;1.62;;;;;;;20.14;60.39;99963.59;4465374;32;35392;-78
2023/09/10 05:38:57;;;;;;;2.78;1.65;;;;;;;20.16;60.57;99964.38;4472423;32;32644;-78
2023/09/10 05:41:25;;;;;;;3.12;1.77;;;;;;;20.33;60.23;99968.81;4462935;32;33555;-79
2023/09/10 05:43:54;;;;;;;2.55;1.60;;;;;;;20.46;59.71;99966.41;4470640;32;34439;-78
2023/09/10 05:46:24;;;;;;;2.60;1.42;;;;;;;20.58;59.75;99965.84;4466263;32;34621;-78
2023/09/10 05:48:52;;;;;;;4.43;2.10;;;;;;;20.56;59.63;99974.75;4469841;32;33482;-78
2023/09/10 05:51:22;;;;;;;3.70;2.72;;;;;;;20.72;59.28;99973.06;4467015;32;33620;-78
2023/09/10 05:53:51;;;;;;;4.12;2.12;;;;;;;20.72;59.44;99980.97;4461217;32;33253;-78
2023/09/10 05:56:21;;;;;;;4.95;2.12;;;;;;;20.73;59.69;99972.16;4465170;32;33670;-79
2023/09/10 05:58:50;;;;;;;3.12;1.80;;;;;;;20.82;59.44;99971.66;4471168;32;32682;-79
2023/09/10 06:01:19;;;;;;;2.65;1.60;;;;;;;21.00;58.81;99976.94;4471316;32;33871;-79
2023/09/10 06:03:48;;;;;;;3.08;2.00;;;;;;;21.08;58.55;99977.38;4464752;32;34108;-79
2023/09/10 06:06:17;;;;;;;4.78;1.90;;;;;;;21.14;58.44;99971.75;4470131;32;33786;-80
2023/09/10 06:08:47;;;;;;;3.33;2.17;;;;;;;21.15;58.71;99976.13;4467288;32;34712;-78
2023/09/10 06:11:16;;;;;;;3.58;1.55;;;;;;;21.32;58.14;99972.59;4467095;32;33141;-78
2023/09/10 06:13:45;;;;;;;2.40;1.55;;;;;;;21.21;58.58;99970.50;4472814;32;33934;-80
2023/09/10 06:16:14;;;;;;;2.20;1.67;;;;;;;21.34;58.33;99975.16;4459942;32;35186;-79
2023/09/10 06:18:43;;;;;;;5.00;2.08;;;;;;;21.42;58.09;99980.91;4461070;32;33177;-78
2023/09/10 06:21:11;;;;;;;2.00;1.48;;;;;;;21.43;58.35;99972.03;4469718;32;34390;-79
2023/09/10 06:23:40;;;;;;;3.17;1.87;;;;;;;21.37;59.07;99972.34;4473421;32;33556;-78
2023/09/10 06:26:12;;;;;;;4.87;1.95;;;;;;;21.51;59.02;99973.34;4465292;32;33912;-78
2023/09/10 06:28:41;;;;;;;3.47;2.15;;;;;;;21.65;59.26;99980.53;4463238;32;34447;-78
2023/09/10 06:31:10;;;;;;;4.07;1.80;;;;;;;21.77;59.47;99988.69;4466585;32;33555;-79
2023/09/10 06:33:39;;;;;;;4.30;2.65;;;;;;;21.93;58.99;99986.91;4474736;32;34025;-79
2023/09/10 06:36:08;;;;;;;3.45;1.73;;;;;;;21.77;59.80;99991.34;4471512;32;33917;-80
2023/09/10 06:38:37;;;;;;;2.72;1.75;;;;;;;21.87;58.97;99992.56;4466659;32;35046;-78
2023/09/10 06:41:07;;;;;;;3.90;2.08;;;;;;;21.88;58.56;99986.31;4462226;32;34768;-78
2023/09/10 06:43:37;;;;;;;3.47;1.98;;;;;;;21.91;57.64;99997.56;4465935;32;33759;-79
2023/09/10 06:46:06;;;;;;;4.10;2.17;;;;;;;21.82;57.89;99989.28;4474562;32;34152;-79
2023/09/10 06:48:35;;;;;;;4.10;1.98;;;;;;;21.78;57.84;99998.34;4463526;32;33378;-79
2023/09/10 06:51:04;;;;;;;3.15;1.70;;;;;;;22.02;56.96;99996.13;4466049;32;33690;-78
2023/09/10 06:53:33;;;;;;;3.05;1.77;;;;;;;22.33;56.53;99998.78;4459818;32;34829;-80
2023/09/10 06:56:02;;;;;;;4.28;2.00;;;;;;;22.22;57.02;99997.69;4465575;32;34466;-78
2023/09/10 06:58:31;;;;;;;3.67;1.85;;;;;;;22.32;57.05;99998.84;4463934;32;34308;-79
2023/09/10 07:01:05;;;;;;;4.70;2.70;;;;;;;22.17;58.59;100004.03;4460784;32;33603;-79
2023/09/10 07:03:34;;;;;;;3.78;1.67;;;;;;;22.26;58.12;100002.72;4459751;32;33777;-79
2023/09/10 07:06:04;;;;;;;5.35;1.83;;;;;;;22.85;55.99;100005.47;4462382;32;33740;-78
2023/09/10 07:08:35;;;;;;;3.75;1.75;;;;;;;22.78;55.95;100009.41;4475861;32;33299;-78
2023/09/10 07:11:04;;;;;;;3.83;2.15;;;;;;;23.09;55.65;100018.22;4476027;32;34045;-78
2023/09/10 07:13:34;;;;;;;3.62;2.08;;;;;;;22.95;55.13;100009.28;4475270;32;34530;-79
2023/09/10 07:16:03;;;;;;;4.95;2.35;;;;;;;22.88;55.82;100017.66;4472971;32;34252;-78
2023/09/10 07:18:33;;;;;;;3.55;2.15;;;;;;;22.88;54.87;100013.25;4467987;32;33310;-77
2023/09/10 07:21:03;;;;;;;4.55;2.05;;;;;;;23.17;53.58;100019.47;4460474;32;33321;-78
2023/09/10 07:23:32;;;;;;;4.50;2.33;;;;;;;23.14;54.11;100016.16;4461532;32;33686;-79
2023/09/10 07:26:00;;;;;;;3.95;1.90;;;;;;;23.36;54.07;100016.53;4468575;32;33951;-78
2023/09/10 07:28:29;;;;;;;2.75;2.03;;;;;;;23.14;54.51;100013.50;4465407;32;33199;-79
2023/09/10 07:30:58;;;;;;;3.03;1.80;;;;;;;23.60;53.04;100015.97;4472931;32;34250;-78
2023/09/10 07:33:27;;;;;;;2.62;1.55;;;;;;;23.48;54.24;100016.75;4463466;32;33778;-78
2023/09/10 07:35:57;;;;;;;3.25;1.77;;;;;;;23.88;52.57;100017.78;4468246;32;34122;-79
2023/09/10 07:38:26;;;;;;;3.08;1.80;;;;;;;23.75;52.69;100016.84;4465982;32;32604;-79
2023/09/10 07:40:55;;;;;;;3.65;1.55;;;;;;;23.88;53.12;100019.59;4472296;32;34460;-78
2023/09/10 07:43:27;;;;;;;4.30;1.95;;;;;;;24.17;51.65;100020.37;4461588;32;34747;-78
2023/09/10 07:45:55;;;;;;;2.20;1.42;;;;;;;24.25;51.76;100026.87;4467223;32;33791;-79
2023/09/10 07:48:24;;;;;;;2.95;1.60;;;;;;;24.32;50.22;100021.19;4464345;32;34407;-79
2023/09/10 07:50:54;;;;;;;2.80;1.85;;;;;;;24.35;51.20;100016.53;4469018;32;33617;-78
2023/09/10 07:53:25;;;;;;;3.35;1.60;;;;;;;24.36;51.55;100028.00;4467305;32;34224;-79
2023/09/10 07:55:54;;;;;;;2.70;1.52;;;;;;;24.60;49.32;100020.28;4473121;32;33343;-79
2023/09/10 07:58:23;;;;;;;4.53;1.75;;;;;;;24.59;49.76;100014.09;4464976;32;33488;-78
2023/09/10 08:00:54;;;;;;;2.95;1.70;;;;;;;24.83;50.44;100016.06;4469033;32;34712;-78
2023/09/10 08:03:23;;;;;;;2.92;1.42;;;;;;;24.83;50.53;100013.41;4470755;32;34012;-78
2023/09/10 08:05:52;;;;;;;4.70;2.08;;;;;;;24.62;50.25;100008.59;4468985;32;34658;-80
2023/09/10 08:08:20;;;;;;;3.85;2.00;;;;;;;25.32;47.90;100004.78;4461414;32;33489;-80
2023/09/10 08:10:51;;;;;;;3.50;1.70;;;;;;;25.18;48.57;100003.09;4462518;31;34071;-80
2023/09/10 08:13:21;;;;;;;3.80;2.03;;;;;;;25.07;48.25;99997.62;4467025;32;34001;-80
2023/09/10 08:15:50;;;;;;;6.00;1.42;;;;;;;25.30;47.93;100009.38;4466726;32;34694;-79
2023/09/10 08:18:19;;;;;;;3.42;1.40;;;;;;;25.16;48.26;99998.81;4467821;32;34227;-81
2023/09/10 08:20:48;;;;;;;3.67;1.70;;;;;;;25.42;47.21;100010.28;4465749;32;34654;-80
2023/09/10 08:23:17;;;;;;;2.65;1.50;;;;;;;25.59;47.11;100009.09;4466017;32;34702;-79
2023/09/10 08:25:46;;;;;;;2.78;1.48;;;;;;;25.62;47.00;100004.44;4475023;32;33903;-79
2023/09/10 08:28:16;;;;;;;3.80;2.03;;;;;;;25.62;46.30;99999.13;4473399;32;33801;-78
2023/09/10 08:30:45;;;;;;;4.10;1.92;;;;;;;25.72;46.14;100008.12;4472949;32;33049;-79
2023/09/10 08:33:14;;;;;;;4.68;1.85;;;;;;;25.67;46.59;99994.31;4471324;32;33712;-80
2023/09/10 08:35:45;;;;;;;3.83;1.98;;;;;;;25.96;46.76;100000.25;4479986;32;35211;-79
2023/09/10 08:38:14;;;;;;;3.05;1.90;;;;;;;25.83;47.18;100002.06;4473258;32;33476;-80
2023/09/10 08:40:50;;;;;;;3.42;1.73;;;;;;;25.77;47.40;99994.53;4474540;32;33969;-78
2023/09/10 08:43:23;;;;;;;3.55;2.08;;;;;;;25.96;46.50;99996.75;4473532;32;33760;-79
2023/09/10 08:45:52;;;;;;;3.30;1.37;;;;;;;26.12;45.44;99993.78;4472096;32;33987;-80
2023/09/10 08:48:21;;;;;;;3.70;1.55;;;;;;;26.22;45.51;99994.84;4476311;32;33135;-79
2023/09/10 08:50:50;;;;;;;3.35;1.50;;;;;;;26.16;45.82;99992.63;4474459;32;33629;-80
2023/09/10 08:53:19;;;;;;;3.42;1.60;;;;;;;26.18;43.66;99996.03;4466778;32;34493;-79
2023/09/10 08:55:49;;;;;;;3.10;1.42;;;;;;;26.22;43.05;99986.88;4468398;32;32154;-79
2023/09/10 08:58:20;;;;;;;2.67;1.30;;;;;;;26.56;41.34;99985.22;4475069;32;33656;-79
2023/09/10 09:00:51;;;;;;;7.35;1.37;;;;;;;26.43;42.58;99988.88;4469743;32;35691;-79
2023/09/10 09:03:20;;;;;;;3.10;1.60;;;;;;;26.57;43.33;99991.38;4468015;32;33565;-80
2023/09/10 09:05:50;;;;;;;3.60;1.83;;;;;;;26.72;42.46;99990.22;4462322;32;34210;-79
2023/09/10 09:08:23;;;;;;;2.28;1.17;;;;;;;26.48;42.84;99976.94;4466729;32;34263;-78
2023/09/10 09:10:53;;;;;;;2.85;1.50;;;;;;;26.69;42.54;99976.31;4474488;31;33626;-79
2023/09/10 09:13:23;;;;;;;3.97;1.50;;;;;;;26.79;43.16;99975.47;4469809;32;34095;-79
2023/09/10 09:15:52;;;;;;;7.07;1.50;;;;;;;26.87;42.25;99976.72;4471987;32;33419;-79
2023/09/10 09:18:22;;;;;;;1.77;1.00;;;;;;;26.98;42.16;99974.91;4465338;32;33447;-79
2023/09/10 09:20:54;;;;;;;2.40;1.02;;;;;;;27.12;42.50;99967.69;4476779;32;33748;-79
2023/09/10 09:23:26;;;;;;;2.90;1.42;;;;;;;27.09;40.72;99965.28;4469534;32;34043;-79
2023/09/10 09:25:56;;;;;;;4.93;1.42;;;;;;;27.37;40.52;99964.81;4471451;32;34834;-79
2023/09/10 09:28:29;;;;;;;3.25;1.50;;;;;;;27.32;41.55;99960.84;4467759;32;33329;-79
2023/09/10 09:30:57;;;;;;;3.70;1.60;;;;;;;27.47;39.68;99967.59;4464724;32;33524;-80
2023/09/10 09:33:26;;;;;;;2.22;1.50;;;;;;;27.36;39.97;99954.31;4467821;32;33793;-80
2023/09/10 09:35:56;;;;;;;2.92;1.45;;;;;;;27.35;40.40;99956.13;4466297;32;33867;-80
2023/09/10 09:38:24;;;;;;;2.75;1.40;;;;;;;27.70;39.07;99957.78;4467950;32;32698;-79
2023/09/10 09:40:53;;;;;;;3.62;1.75;;;;;;;27.61;38.71;99954.03;4473619;31;33580;-79
2023/09/10 09:43:22;;;;;;;3.50;1.35;;;;;;;27.67;38.60;99955.37;4475526;32;34482;-80
2023/09/10 09:45:53;;;;;;;3.83;1.52;;;;;;;27.83;38.71;99952.31;4467500;32;33962;-79
2023/09/10 09:48:23;;;;;;;2.87;1.35;;;;;;;27.82;38.84;99954.16;4466022;32;34153;-78
2023/09/10 09:50:52;;;;;;;3.37;1.10;;;;;;;27.85;39.54;99948.56;4465024;32;32951;-79
2023/09/10 09:53:24;;;;;;;1.75;1.20;;;;;;;27.81;39.15;99956.91;4474008;32;34531;-79
2023/09/10 09:55:55;;;;;;;2.65;1.10;;;;;;;27.91;38.29;99949.91;4480049;32;34132;-79
2023/09/10 09:58:24;;;;;;;4.40;2.35;;;;;;;28.03;38.80;99946.22;4468347;32;34462;-80
2023/09/10 10:01:27;;;;;;;2.12;1.30;;;;;;;27.97;38.71;99948.53;4448623;31;33478;-80
2023/09/10 10:03:57;;;;;;;2.80;1.50;;;;;;;27.93;39.08;99955.09;4472034;32;32968;-80
2023/09/10 10:06:26;;;;;;;2.58;1.40;;;;;;;27.95;38.58;99940.66;4473768;32;33283;-80
2023/09/10 10:08:55;;;;;;;1.62;1.00;;;;;;;28.01;38.65;99937.50;4470645;32;34859;-79
2023/09/10 10:11:29;;;;;;;2.50;1.20;;;;;;;28.37;38.71;99934.59;4466522;32;34625;-79
2023/09/10 10:13:59;;;;;;;2.05;1.20;;;;;;;28.58;37.16;99929.28;4463380;32;33314;-78
2023/09/10 10:16:30;;;;;;;3.67;1.40;;;;;;;28.44;37.32;99933.94;4468294;32;33284;-80
2023/09/10 10:19:00;;;;;;;3.40;1.20;;;;;;;28.44;37.32;99933.06;4474351;32;33094;-79
2023/09/10 10:21:31;;;;;;;2.50;1.20;;;;;;;28.65;37.17;99927.78;4470659;32;34285;-79
2023/09/10 10:24:00;;;;;;;2.42;1.10;;;;;;;28.77;36.67;99928.56;4465662;32;33671;-79
2023/09/10 10:26:30;;;;;;;2.30;1.00;;;;;;;28.70;36.49;99920.22;4461372;32;33755;-79
2023/09/10 10:28:59;;;;;;;3.50;1.62;;;;;;;28.72;36.75;99912.94;4472448;32;33553;-80
2023/09/10 10:31:30;;;;;;;3.85;2.00;;;;;;;28.37;37.79;99919.41;4473340;32;34037;-79
2023/09/10 10:34:04;;;;;;;1.98;1.15;;;;;;;28.84;36.36;99914.56;4464076;32;33832;-79
2023/09/10 10:36:40;;;;;;;4.43;1.90;;;;;;;29.02;36.72;99921.94;4475349;32;33584;-80
2023/09/10 10:39:10;;;;;;;3.42;1.50;;;;;;;29.18;34.86;99911.66;4476379;32;32873;-80
2023/09/10 10:41:44;;;;;;;3.22;1.70;;;;;;;29.08;35.75;99910.78;4476486;32;33613;-79
2023/09/10 10:44:19;;;;;;;2.33;1.00;;;;;;;29.06;35.80;99910.03;4480470;32;35052;-79
2023/09/10 10:46:55;;;;;;;1.15;0.88;;;;;;;29.25;35.08;99910.13;4460857;32;33868;-79
2023/09/10 10:49:24;;;;;;;1.95;1.33;;;;;;;29.26;35.61;99903.84;4460672;32;33994;-79
2023/09/10 10:51:54;;;;;;;2.00;1.23;;;;;;;29.33;35.26;99899.63;4475138;32;33440;-80
2023/09/10 10:54:25;;;;;;;2.17;1.20;;;;;;;29.34;35.83;99903.97;4476207;32;33723;-80
2023/09/10 10:56:54;;;;;;;3.83;1.48;;;;;;;29.50;34.91;99899.94;4481417;32;33613;-79
2023/09/10 10:59:23;;;;;;;3.75;1.50;;;;;;;29.80;34.93;99892.88;4476011;32;34003;-79
2023/09/10 11:02:15;;;;;;;2.92;1.37;;;;;;;29.74;33.84;99886.22;4475644;32;33378;-80
2023/09/10 11:04:58;;;;;;;2.03;1.00;;;;;;;29.80;33.16;99884.84;4475875;32;34052;-79
2023/09/10 11:07:29;;;;;;;3.85;1.40;;;;;;;29.78;34.09;99879.63;4476232;32;34123;-79
2023/09/10 11:09:59;;;;;;;2.10;1.15;;;;;;;29.90;34.40;99872.31;4466365;32;33494;-80
2023/09/10 11:12:28;;;;;;;3.97;1.52;;;;;;;29.92;32.89;99879.22;4460453;32;33417;-79
2023/09/10 11:15:04;;;;;;;2.03;1.10;;;;;;;29.95;32.05;99878.09;4460405;32;33394;-79
2023/09/10 11:17:35;;;;;;;3.40;1.25;;;;;;;29.78;32.46;99877.78;4460344;32;34003;-80
2023/09/10 11:20:05;;;;;;;1.80;0.88;;;;;;;30.22;30.12;99873.88;4460963;32;32766;-79
2023/09/10 11:23:06;;;;;;;3.50;1.40;;;;;;;30.15;31.50;99873.59;4481822;32;32979;-80
2023/09/10 11:25:35;;;;;;;2.50;1.30;;;;;;;30.06;30.85;99879.78;4481681;32;33505;-79
2023/09/10 11:28:04;;;;;;;1.58;1.08;;;;;;;30.38;31.13;99882.19;4475857;32;34160;-80
2023/09/10 11:30:33;;;;;;;3.37;1.60;;;;;;;30.32;29.39;99870.22;4476470;32;33255;-79
2023/09/10 11:33:31;;;;;;;2.12;1.10;;;;;;;30.05;31.16;99876.25;4477786;32;33736;-79
2023/09/10 11:36:00;;;;;;;2.35;1.00;;;;;;;30.27;30.04;99871.63;4468742;31;33921;-79
2023/09/10 11:38:31;;;;;;;4.43;1.35;;;;;;;30.14;30.42;99870.06;4483391;32;34905;-79
2023/09/10 11:41:00;;;;;;;1.70;1.10;;;;;;;30.26;32.23;99862.78;4477747;32;33624;-79
2023/09/10 11:43:29;;;;;;;4.18;1.55;;;;;;;30.31;31.98;99865.84;4477549;32;33977;-80
2023/09/10 11:45:58;;;;;;;2.62;1.30;;;;;;;30.44;32.51;99864.72;4477851;32;34352;-79